• Join FlightAware (Why Join?)
  • Login
  • US Flag 
08:28PM EDT


 

Airport Tracker/Info


-or-


 

Live Flight TrackerFlight Track Log ✈ BYA227 ✈ 07-Jul-2013 ✈ KGCN - KHHR

Flight Track Log - Related Links

Times and Time Zones

All times are in EDT time to prevent confusion due to time zone crossing. See the BYA227 flight status page for this flight to view local times or setup timezone preferences in your user account.

Time Position Orientation Groundspeed Altitude Reporting Facility
EDT Latitude Longitude Course Direction KTS MPH feet Rate Location/Type
03:39PM 35.8794 -112.3764 255° West 196 226 9,900  Level Los Angeles Center
03:40PM 35.8633 -112.4403 253° West 197 227 10,700 600 Climbing Los Angeles Center
03:41PM 35.8425 -112.5153 251° West 195 224 11,300 540 Climbing Los Angeles Center
03:42PM 35.8258 -112.5942 255° West 199 229 12,000 660 Climbing Los Angeles Center
03:44PM 35.8081 -112.6589 251° West 201 231 12,700 720 Climbing Los Angeles Center
03:45PM 35.8428 -112.5992 255° West  Level FlightAware Approximate
03:45PM 35.7950 -112.7236 256° West 198 228 13,600  Level Los Angeles Center
03:46PM 35.7778 -112.7908 252° West 173 199 14,800 780 Climbing Los Angeles Center
03:47PM 35.7658 -112.8353 252° West 171 197 15,200 480 Climbing Los Angeles Center
03:48PM 35.7383 -112.9025 243° Southwest 183 211 15,800 240 Climbing Los Angeles Center
03:49PM 35.7114 -112.9617 241° Southwest 197 227 15,800  Level Los Angeles Center
03:50PM 35.6778 -113.0153 232° Southwest 199 229 15,900  Climbing Los Angeles Center
03:51PM 35.6369 -113.0764 231° Southwest 193 222 15,800 -60 Descending Los Angeles Center
03:52PM 35.6058 -113.1408 239° Southwest 211 243 15,800  Level Los Angeles Center
03:53PM 35.5769 -113.2072 242° Southwest 219 252 15,800 -60 Level Los Angeles Center
03:54PM 35.5622 -113.2758 255° West 222 255 15,700 -120 Descending Los Angeles Center
03:55PM 35.5289 -113.3589 244° Southwest 226 260 15,600  Descending Los Angeles Center
03:56PM 35.4936 -113.4228 236° Southwest 229 264 15,700  Climbing Los Angeles Center
03:57PM 35.4814 -113.4867 257° West 238 274 15,700 -60 Level Los Angeles Center
03:58PM 35.4642 -113.5808 257° West 239 275 15,600 60 Descending Los Angeles Center
03:59PM 35.4492 -113.6561 256° West 232 267 15,900 240 Climbing Los Angeles Center
04:00PM 35.4269 -113.7425 253° West 224 258 16,100 60 Climbing Los Angeles Center
04:01PM 35.4111 -113.8167 255° West 226 260 16,100  Level Los Angeles Center
04:02PM 35.3989 -113.8775 256° West 230 265 16,100 -60 Level Los Angeles Center
04:03PM 35.3725 -113.9817 253° West 237 273 16,000 -60 Descending Los Angeles Center
04:04PM 35.3572 -114.0642 257° West 245 282 16,000  Level Los Angeles Center
04:05PM 35.3397 -114.1439 255° West 243 280 16,000 60 Level Los Angeles Center
04:07PM 35.3186 -114.2417 255° West 246 283 16,200 120 Climbing Los Angeles Center
04:08PM 35.3014 -114.3233 256° West 247 284 16,300  Climbing Los Angeles Center
04:09PM 35.2769 -114.4206 253° West 248 285 16,200 -60 Descending Los Angeles Center
04:10PM 35.2553 -114.5183 255° West 248 285 16,200  Level Los Angeles Center
04:11PM 35.2372 -114.5989 255° West 247 284 16,300  Climbing Los Angeles Center
04:12PM 35.2197 -114.6789 255° West 244 281 16,300 -60 Level Los Angeles Center
04:13PM 35.2008 -114.7611 254° West 248 285 16,200 -60 Descending Los Angeles Center
04:14PM 35.1836 -114.8456 256° West 254 292 16,200  Level Los Angeles Center
04:15PM 35.1644 -114.9269 254° West 250 288 16,300  Climbing Los Angeles Center
04:16PM 35.1408 -115.0236 253° West 248 285 16,300 -60 Level Los Angeles Center
04:17PM 35.1217 -115.1050 254° West 250 288 16,200 -60 Descending Los Angeles Center
04:18PM 35.1033 -115.1867 255° West 250 288 16,200  Level Los Angeles Center
04:19PM 35.0861 -115.2608 254° West 249 287 16,300  Climbing Los Angeles Center
04:20PM 35.0672 -115.3422 254° West 249 287 16,300  Level Los Angeles Center
04:21PM 35.0442 -115.4386 254° West 248 285 16,300 -60 Level Los Angeles Center
04:22PM 35.0256 -115.5206 255° West 250 288 16,200 -120 Descending Los Angeles Center
04:23PM 35.0081 -115.6019 255° West 250 288 16,100 -60 Descending Los Angeles Center
04:24PM 34.9881 -115.6831 253° West 248 285 16,100 -60 Level Los Angeles Center
04:25PM 34.9731 -115.7467 254° West 247 284 16,000 -60 Descending Los Angeles Center
04:26PM 34.9464 -115.8533 253° West 237 273 16,000  Level Los Angeles Center
04:27PM 34.9278 -115.9283 253° West 234 269 16,000  Level Los Angeles Center
04:28PM 34.9089 -116.0050 253° West 235 270 16,000 -60 Level Los Angeles Center
04:29PM 34.8903 -116.0783 253° West 232 267 15,900 -300 Descending Los Angeles Center
04:31PM 34.8719 -116.1528 253° West 231 266 15,500 -420 Descending Los Angeles Center
04:32PM 34.8531 -116.2319 254° West 237 273 15,100 -480 Descending Los Angeles Center
04:33PM 34.8294 -116.3286 253° West 246 283 14,600 -540 Descending Los Angeles Center
04:34PM 34.8081 -116.4106 252° West 250 288 14,100 -300 Descending Los Angeles Center
04:35PM 34.7822 -116.4842 247° West 244 281 14,000  Descending Los Angeles Center
04:36PM 34.7394 -116.5386 226° Southwest 230 265 14,100  Climbing Los Angeles Center
04:37PM 34.6978 -116.5908 226° Southwest 218 251 14,000  Descending Los Angeles Center
04:38PM 34.6547 -116.6444 226° Southwest 220 253 14,100  Climbing Los Angeles Center
04:39PM 34.5994 -116.7136 226° Southwest 237 273 14,000 -60 Descending Los Angeles Center
04:40PM 34.5528 -116.7703 225° Southwest 239 275 14,000  Level Los Angeles Center
04:41PM 34.5078 -116.8258 226° Southwest 233 268 14,000  Level Los Angeles Center
04:42PM 34.4631 -116.8789 224° Southwest 226 260 14,000 -300 Level Los Angeles Center
04:43PM 34.4189 -116.9322 225° Southwest 226 260 13,400 -600 Descending Los Angeles Center
04:44PM 34.3700 -116.9892 224° Southwest 238 274 12,800 -660 Descending Los Angeles Center
04:45PM 34.3128 -117.0569 224° Southwest 239 275 12,100 -780 Descending Los Angeles Center
04:46PM 34.2614 -117.1175 224° Southwest 255 293 11,300 -780 Descending Los Angeles Center
04:47PM 34.2131 -117.1756 225° Southwest 254 292 10,500 -720 Descending Los Angeles Center
04:48PM 34.1639 -117.2369 226° Southwest 255 293 9,900 -780 Descending Los Angeles Center
04:49PM 34.1250 -117.2875 227° Southwest 254 292 9,000 -1,500 Descending Los Angeles Center
04:50PM 34.0539 -117.3689 223° Southwest 250 288 6,800 -1,800 Descending Los Angeles Center
04:51PM 34.0167 -117.4167 227° Southwest 239 275 5,900 -480 Descending Southern California TRACON
04:52PM 33.9833 -117.4667 231° Southwest 217 250 6,000 -180 Climbing Southern California TRACON
04:53PM 33.9333 -117.5167 220° Southwest 233 268 5,600 -360 Descending Southern California TRACON
04:55PM 33.9500 -117.6667 278° West 228 262 5,000 -300 Descending Southern California TRACON
04:56PM 33.9500 -117.7500 270° West 226 260 4,700 -600 Descending Southern California TRACON
04:57PM 33.9500 -117.8167 270° West 234 269 3,900 -900 Descending Southern California TRACON
04:58PM 33.9500 -117.9000 270° West 223 257 3,000 -480 Descending Southern California TRACON
04:59PM 33.9333 -117.9667 253° West 216 249 3,000  Level Southern California TRACON
05:00PM 33.9333 -118.0333 270° West 220 253 3,000 -300 Level Southern California TRACON
05:01PM 33.9333 -118.1167 270° West 219 252 2,500 -720 Descending Southern California TRACON
05:02PM 33.9297 -118.1553 264° West 217 250 1,800 -540 Descending Los Angeles Center
05:03PM 33.9261 -118.2325 267° West 204 235 1,600 -420 Descending Los Angeles Center
05:04PM 33.9250 -118.2792 268° West 165 190 1,000 3,300 Descending Los Angeles Center
05:06PM 33.9239 -118.3389 269° West 107 123 12,000 5,280 Climbing Los Angeles Center